createdAt,value
2022-10-20T00:00:09.301Z,4.88
2022-10-20T00:04:31.302Z,4.93
2022-10-20T00:08:32.943Z,4.89
2022-10-20T00:12:35.301Z,4.89
2022-10-20T00:16:39.265Z,4.82
2022-10-20T00:20:41.141Z,4.76
2022-10-20T00:24:42.962Z,4.80
2022-10-20T00:28:45.740Z,4.81
2022-10-20T00:32:47.945Z,4.79
2022-10-20T00:36:51.342Z,4.72
2022-10-20T00:40:53.338Z,4.73
2022-10-20T00:44:58.308Z,4.66
2022-10-20T00:49:12.608Z,4.51
2022-10-20T00:53:15.800Z,4.47
2022-10-20T00:57:17.929Z,4.32
2022-10-20T01:01:20.023Z,4.11
2022-10-20T01:05:22.025Z,4.06
2022-10-20T01:09:24.208Z,4.00
2022-10-20T01:13:39.524Z,3.96
2022-10-20T01:17:57.305Z,3.96
2022-10-20T01:22:13.315Z,4.01
2022-10-20T01:26:38.022Z,4.12
2022-10-20T01:30:46.673Z,4.08
2022-10-20T01:34:59.292Z,3.97
2022-10-20T01:39:21.902Z,3.95
2022-10-20T01:43:26.949Z,3.90
2022-10-20T01:47:30.031Z,3.88
2022-10-20T01:51:32.614Z,3.94
2022-10-20T01:55:34.729Z,3.90
2022-10-20T01:59:47.828Z,3.87
2022-10-20T02:03:57.967Z,3.72
2022-10-20T02:08:17.957Z,3.63
2022-10-20T02:12:26.368Z,3.50
2022-10-20T02:16:36.636Z,3.32
2022-10-20T02:20:42.579Z,3.09
2022-10-20T02:24:45.676Z,3.01
2022-10-20T02:28:54.477Z,2.85
2022-10-20T02:32:56.458Z,2.73
2022-10-20T02:36:58.707Z,2.74
2022-10-20T02:41:00.665Z,2.55
2022-10-20T02:45:02.454Z,2.63
2022-10-20T02:49:04.378Z,2.81
2022-10-20T02:53:06.204Z,2.68
2022-10-20T02:57:08.092Z,2.65
2022-10-20T03:01:09.825Z,2.48
2022-10-20T03:05:11.871Z,2.37
2022-10-20T03:09:14.023Z,2.36
2022-10-20T03:13:16.128Z,2.34
2022-10-20T03:17:18.061Z,2.23
2022-10-20T03:21:20.673Z,2.06
2022-10-20T03:25:22.323Z,2.03
2022-10-20T03:29:26.732Z,1.77
2022-10-20T03:33:28.408Z,1.77
2022-10-20T03:37:30.332Z,1.69
2022-10-20T03:41:32.010Z,1.61
2022-10-20T03:45:33.880Z,1.53
2022-10-20T03:49:35.478Z,1.52
2022-10-20T03:53:37.477Z,1.39
2022-10-20T03:57:39.173Z,1.26
2022-10-20T04:01:45.022Z,1.35
2022-10-20T04:05:46.764Z,1.19
2022-10-20T04:09:48.753Z,1.05
2022-10-20T04:13:50.437Z,1.03
2022-10-20T04:17:52.486Z,0.98
2022-10-20T04:21:54.333Z,0.85
2022-10-20T04:25:56.174Z,0.78
2022-10-20T04:29:58.072Z,0.84
2022-10-20T04:33:59.862Z,0.69
2022-10-20T04:38:01.522Z,0.67
2022-10-20T04:42:03.543Z,0.62
2022-10-20T04:46:08.423Z,0.57
2022-10-20T04:50:10.812Z,0.40
2022-10-20T04:54:12.659Z,0.41
2022-10-20T04:58:14.628Z,0.33
2022-10-20T05:02:16.310Z,0.42
2022-10-20T05:06:27.291Z,0.38
2022-10-20T05:10:31.041Z,0.36
2022-10-20T05:14:34.928Z,0.31
2022-10-20T05:18:36.966Z,0.22
2022-10-20T05:22:39.160Z,0.26
2022-10-20T05:26:41.087Z,0.17
2022-10-20T05:34:49.546Z,0.26
2022-10-20T05:38:53.727Z,0.32
2022-10-20T05:42:55.744Z,0.40
2022-10-20T05:46:57.626Z,0.38
2022-10-20T05:51:20.023Z,0.56
2022-10-20T05:55:21.965Z,0.66
2022-10-20T05:59:23.715Z,0.81
2022-10-20T06:03:28.287Z,0.97
2022-10-20T06:07:30.365Z,1.06
2022-10-20T06:11:35.880Z,1.24
2022-10-20T06:15:40.125Z,1.46
2022-10-20T06:19:42.071Z,1.56
2022-10-20T06:23:43.832Z,1.70
2022-10-20T06:27:46.221Z,1.93
2022-10-20T06:31:50.721Z,2.12
2022-10-20T06:35:52.631Z,2.29
2022-10-20T06:39:54.295Z,2.52
2022-10-20T06:43:59.972Z,2.72
2022-10-20T06:48:01.666Z,3.00
2022-10-20T06:52:04.221Z,3.21
2022-10-20T06:56:12.800Z,3.36
2022-10-20T07:00:14.831Z,3.55
2022-10-20T07:04:16.852Z,3.69
2022-10-20T07:08:18.706Z,3.84
2022-10-20T07:12:20.314Z,4.00
2022-10-20T07:16:24.605Z,4.22
2022-10-20T07:20:26.694Z,4.49
2022-10-20T07:24:29.503Z,4.65
2022-10-20T07:28:31.884Z,4.87
2022-10-20T07:32:34.132Z,5.10
2022-10-20T07:36:37.443Z,5.23
2022-10-20T07:40:39.256Z,5.37
2022-10-20T07:44:40.901Z,5.62
2022-10-20T07:48:42.752Z,5.82
2022-10-20T07:52:44.431Z,5.79
2022-10-20T07:56:46.747Z,6.05
2022-10-20T08:00:48.408Z,6.32
2022-10-20T08:04:50.575Z,6.66
2022-10-20T08:08:52.672Z,7.04
2022-10-20T08:12:54.540Z,6.98
2022-10-20T08:17:00.959Z,7.33
2022-10-20T08:21:13.768Z,7.52
2022-10-20T08:25:15.631Z,7.82
2022-10-20T08:29:17.468Z,7.87
2022-10-20T08:33:19.126Z,7.88
2022-10-20T08:37:20.979Z,8.01
2022-10-20T08:41:27.110Z,8.16
2022-10-20T08:45:34.713Z,8.11
2022-10-20T08:49:39.063Z,8.32
2022-10-20T08:53:40.903Z,8.80
2022-10-20T08:57:43.032Z,9.12
2022-10-20T09:01:45.095Z,9.06
2022-10-20T09:05:56.618Z,9.06
2022-10-20T09:10:11.733Z,9.12
2022-10-20T09:14:16.005Z,9.25
2022-10-20T09:18:18.903Z,9.29
2022-10-20T09:22:22.408Z,9.22
2022-10-20T09:26:58.061Z,9.46
2022-10-20T09:31:01.060Z,9.54
2022-10-20T09:35:15.010Z,9.34
2022-10-20T09:39:23.171Z,9.15
2022-10-20T09:43:26.732Z,9.06
2022-10-20T09:47:29.079Z,9.11
2022-10-20T09:51:31.318Z,8.97
2022-10-20T09:55:42.427Z,9.21
2022-10-20T09:59:46.999Z,9.16
2022-10-20T10:03:52.807Z,9.32
2022-10-20T10:07:59.801Z,9.28
2022-10-20T10:12:11.845Z,9.74
2022-10-20T10:16:16.985Z,10.03
2022-10-20T10:20:18.546Z,10.33
2022-10-20T10:24:48.654Z,10.28
2022-10-20T10:28:58.108Z,10.11
2022-10-20T10:33:00.726Z,10.09
2022-10-20T10:37:02.436Z,10.03
2022-10-20T10:41:36.754Z,9.74
2022-10-20T10:45:46.586Z,9.78
2022-10-20T10:50:15.054Z,9.95
2022-10-20T10:54:53.222Z,9.93
2022-10-20T10:58:59.476Z,9.72
2022-10-20T11:03:25.613Z,9.62
2022-10-20T11:07:48.110Z,10.35
2022-10-20T11:12:03.503Z,10.36
2022-10-20T11:16:10.312Z,10.39
2022-10-20T11:20:20.273Z,10.49
2022-10-20T11:24:41.099Z,10.57
2022-10-20T11:28:50.117Z,10.64
2022-10-20T11:32:55.756Z,10.86
2022-10-20T11:37:18.278Z,10.92
2022-10-20T11:41:29.530Z,11.03
2022-10-20T11:45:42.378Z,10.92
2022-10-20T11:49:44.504Z,10.89
2022-10-20T11:53:56.088Z,10.86
2022-10-20T11:58:10.765Z,11.04
2022-10-20T12:02:29.591Z,11.23
2022-10-20T12:07:07.323Z,11.30
2022-10-20T12:11:26.963Z,11.24
2022-10-20T12:15:28.973Z,11.09
2022-10-20T12:19:33.872Z,10.90
2022-10-20T12:23:49.443Z,10.85
2022-10-20T12:28:23.027Z,10.39
2022-10-20T12:32:37.206Z,10.34
2022-10-20T12:36:39.618Z,10.27
2022-10-20T12:40:48.603Z,10.35
2022-10-20T12:44:50.589Z,10.25
2022-10-20T12:48:58.634Z,10.34
2022-10-20T12:53:21.592Z,10.47
2022-10-20T12:57:45.111Z,10.38
2022-10-20T13:02:08.719Z,10.48
2022-10-20T13:06:36.906Z,10.36
2022-10-20T13:10:39.439Z,10.21
2022-10-20T13:14:44.171Z,10.06
2022-10-20T13:18:49.844Z,9.74
2022-10-20T13:22:54.388Z,9.55
2022-10-20T13:27:01.457Z,9.32
2022-10-20T13:31:32.935Z,9.27
2022-10-20T13:35:46.034Z,9.16
2022-10-20T13:40:05.293Z,9.12
2022-10-20T13:44:16.451Z,9.15
2022-10-20T13:48:18.424Z,9.18
2022-10-20T13:52:21.563Z,9.25
2022-10-20T13:56:35.233Z,9.45
2022-10-20T14:00:37.376Z,9.53
2022-10-20T14:04:39.279Z,9.57
2022-10-20T14:08:44.004Z,9.58
2022-10-20T14:12:45.974Z,9.62
2022-10-20T14:16:52.719Z,9.66
2022-10-20T14:20:56.968Z,9.50
2022-10-20T14:25:00.182Z,9.51
2022-10-20T14:29:03.328Z,9.42
2022-10-20T14:33:05.480Z,9.25
2022-10-20T14:37:24.399Z,9.32
2022-10-20T14:41:31.170Z,9.20
2022-10-20T14:45:33.290Z,9.14
2022-10-20T14:49:39.419Z,9.15
2022-10-20T14:53:41.287Z,9.01
2022-10-20T14:57:44.434Z,9.02
2022-10-20T15:02:08.205Z,8.92
2022-10-20T15:06:16.760Z,8.90
2022-10-20T15:10:25.505Z,8.79
2022-10-20T15:14:27.785Z,8.68
2022-10-20T15:18:30.526Z,8.58
2022-10-20T15:22:32.324Z,8.51
2022-10-20T15:26:34.294Z,8.41
2022-10-20T15:30:36.080Z,8.31
2022-10-20T15:34:38.023Z,8.20
2022-10-20T15:38:39.731Z,8.20
2022-10-20T15:42:41.631Z,8.17
2022-10-20T15:46:45.023Z,8.11
2022-10-20T15:50:47.324Z,8.09
2022-10-20T15:54:49.019Z,8.07
2022-10-20T15:58:51.331Z,8.06
2022-10-20T16:02:53.850Z,8.06
2022-10-20T16:06:58.973Z,8.03
2022-10-20T16:11:03.689Z,8.06
2022-10-20T16:15:06.055Z,7.99
2022-10-20T16:19:08.257Z,7.98
2022-10-20T16:23:10.126Z,8.02
2022-10-20T16:27:11.943Z,8.05
2022-10-20T16:31:15.926Z,7.98
2022-10-20T16:35:17.850Z,7.93
2022-10-20T16:39:22.573Z,7.91
2022-10-20T16:43:24.354Z,7.87
2022-10-20T16:47:26.573Z,7.84
2022-10-20T16:51:28.322Z,7.82
2022-10-20T16:55:30.133Z,7.88
2022-10-20T16:59:31.813Z,7.84
2022-10-20T17:03:34.338Z,7.79
2022-10-20T17:07:37.561Z,7.78
2022-10-20T17:11:39.707Z,7.77
2022-10-20T17:15:41.607Z,7.63
2022-10-20T17:19:43.569Z,7.61
2022-10-20T17:23:46.109Z,7.56
2022-10-20T17:27:47.988Z,7.54
2022-10-20T17:31:49.760Z,7.37
2022-10-20T17:35:51.558Z,7.22
2022-10-20T17:39:53.493Z,6.99
2022-10-20T17:43:58.438Z,6.73
2022-10-20T17:48:00.411Z,6.52
2022-10-20T17:52:02.487Z,6.28
2022-10-20T17:56:07.697Z,5.99
2022-10-20T18:00:16.401Z,5.72
2022-10-20T18:04:24.437Z,5.53
2022-10-20T18:08:26.572Z,5.29
2022-10-20T18:12:28.519Z,5.02
2022-10-20T18:16:32.644Z,4.92
2022-10-20T18:20:34.480Z,4.89
2022-10-20T18:24:37.302Z,4.70
2022-10-20T18:28:41.075Z,4.51
2022-10-20T18:32:45.050Z,4.31
2022-10-20T18:36:47.742Z,4.17
2022-10-20T18:40:49.797Z,4.04
2022-10-20T18:44:51.564Z,3.93
2022-10-20T18:48:53.608Z,3.84
2022-10-20T18:52:55.506Z,3.84
2022-10-20T18:56:57.481Z,3.69
2022-10-20T19:01:01.747Z,3.62
2022-10-20T19:05:04.330Z,3.51
2022-10-20T19:09:08.955Z,3.28
2022-10-20T19:13:10.917Z,3.38
2022-10-20T19:17:12.819Z,3.25
2022-10-20T19:21:15.350Z,3.16
2022-10-20T19:25:17.086Z,2.97
2022-10-20T19:29:19.506Z,3.00
2022-10-20T19:33:21.367Z,2.82
2022-10-20T19:37:24.284Z,2.68
2022-10-20T19:41:26.951Z,2.50
2022-10-20T19:45:28.983Z,2.49
2022-10-20T19:49:30.851Z,2.54
2022-10-20T19:53:33.927Z,2.47
2022-10-20T19:57:35.610Z,2.36
2022-10-20T20:01:38.654Z,2.46
2022-10-20T20:05:40.627Z,2.36
2022-10-20T20:09:42.431Z,2.28
2022-10-20T20:13:44.243Z,2.24
2022-10-20T20:17:46.340Z,2.22
2022-10-20T20:21:48.207Z,2.26
2022-10-20T20:25:50.152Z,2.19
2022-10-20T20:29:52.150Z,2.08
2022-10-20T20:33:54.962Z,2.15
2022-10-20T20:37:56.712Z,2.02
2022-10-20T20:41:59.326Z,1.90
2022-10-20T20:46:11.316Z,1.80
2022-10-20T20:50:13.684Z,1.76
2022-10-20T20:54:15.596Z,1.73
2022-10-20T20:58:17.441Z,1.61
2022-10-20T21:02:19.169Z,1.57
2022-10-20T21:06:25.682Z,1.54
2022-10-20T21:10:36.706Z,1.47
2022-10-20T21:14:39.377Z,1.40
2022-10-20T21:18:43.185Z,1.32
2022-10-20T21:22:45.116Z,1.36
2022-10-20T21:26:48.706Z,1.23
2022-10-20T21:30:50.814Z,1.30
2022-10-20T21:34:55.101Z,1.33
2022-10-20T21:38:59.747Z,1.36
2022-10-20T21:43:01.512Z,1.39
2022-10-20T21:47:03.682Z,1.46
2022-10-20T21:51:07.473Z,1.50
2022-10-20T21:55:09.444Z,1.54
2022-10-20T21:59:20.084Z,1.51
2022-10-20T22:03:21.957Z,1.43
2022-10-20T22:07:24.401Z,1.49
2022-10-20T22:11:34.668Z,1.40
2022-10-20T22:15:38.071Z,1.36
2022-10-20T22:19:40.125Z,1.25
2022-10-20T22:23:43.977Z,1.20
2022-10-20T22:27:45.859Z,1.15
2022-10-20T22:31:47.966Z,1.02
2022-10-20T22:35:49.774Z,1.06
2022-10-20T22:39:51.504Z,0.96
2022-10-20T22:43:53.346Z,0.82
2022-10-20T22:47:55.069Z,0.68
2022-10-20T22:51:56.884Z,0.63
2022-10-20T22:56:05.664Z,0.58
2022-10-20T23:00:08.069Z,0.58
2022-10-20T23:04:09.832Z,0.57
2022-10-20T23:08:11.650Z,0.55
2022-10-20T23:12:13.321Z,0.60
2022-10-20T23:16:15.332Z,0.49
2022-10-20T23:20:17.091Z,0.51
2022-10-20T23:24:18.950Z,0.52
2022-10-20T23:28:21.008Z,0.46
2022-10-20T23:32:23.079Z,0.44
2022-10-20T23:36:24.909Z,0.39
2022-10-20T23:40:26.802Z,0.39
2022-10-20T23:44:28.480Z,0.29
2022-10-20T23:48:30.489Z,0.21
2022-10-20T23:52:32.285Z,0.22
2022-10-20T23:56:34.145Z,0.02
